Terminal Aerodrome Forecast
Issued by NWS Newport/Morehead City, NC

Home | Current Version | Previous Version | Graphics & Text | Print | Product List | Glossary On
Versions: 1 2 3 4 5 6 7 8 9 10 11
000
FTUS42 KMHX 230525
TAFEWN
TAF
KEWN 230525Z 2306/2406 23012KT P6SM SCT100
     FM231000 33008KT P6SM SCT050
     FM231800 28007KT P6SM SKC=

USA.gov is the U.S. government's official web portal to all federal, state and local government web resources and services.